Salvamar Alcyone — EC2475 — position and weather

sailwx.info

Track history (hours):
 
Tides and Currents Weather Stations Pressure Air Temp Water Temp Dewpoint Dewpoint Depression Visibility Wind Speed Wind Dir Waves Ship Positions

Salvamar Alcyone

Last reported at 2017-Oct-20 08:29 UTC. Time now 2017-Oct-20 08:54 UTC.
Position N 43°20' W 003°03'.

Length 21 m; draft 1 m.

Type: SAR. MMSI: 224379540.

Date/timePositionNaut miles runAvg speedWind from/ knotsBaromVisibWave heightAir tempDewpointWater temp
2017-Oct-20 08:29N 43°20' W 003°03'0 0.0
2017-Oct-20 07:59N 43°20' W 003°03'0 0.0
2017-Oct-20 07:29N 43°20' W 003°03'0 0.0
2017-Oct-20 06:59N 43°20' W 003°03'0 0.0
2017-Oct-19 13:29N 43°20' W 003°03'3 5.9
2017-Oct-19 13:01N 43°23' W 003°03'1020.5
2017-Oct-19 12:31N 43°33' W 003°08'1224.4
2017-Oct-19 12:01N 43°40' W 003°22'1122.4
2017-Oct-19 11:30N 43°48' W 003°34'1122.1
2017-Oct-19 10:59N 43°56' W 003°44'7 6.4
2017-Oct-19 09:51N 43°51' W 003°36'721.2
2017-Oct-19 09:30N 43°46' W 003°30'1121.5
2017-Oct-19 09:00N 43°38' W 003°20'1121.3
2017-Oct-19 08:30N 43°29' W 003°11'1121.5
2017-Oct-19 08:00N 43°21' W 003°02'1 1.4
2017-Oct-19 07:29N 43°20' W 003°03'0 0.0
2017-Oct-18 12:27N 43°20' W 003°03'3 7.3
2017-Oct-18 12:00N 43°23' W 003°05'1121.3
2017-Oct-18 11:30N 43°26' W 003°19'4 4.5
2017-Oct-18 10:34N 43°25' W 003°25'1 9.5
2017-Oct-18 10:30N 43°25' W 003°24'1224.4
2017-Oct-18 10:00N 43°23' W 003°08'5 9.8
2017-Oct-18 09:30N 43°20' W 003°03'0 0.0
2017-Oct-18 09:00N 43°20' W 003°03'0 0.0
2017-Oct-18 08:30N 43°20' W 003°03'0 0.0
2017-Oct-18 08:00N 43°20' W 003°03'0 0.0
2017-Oct-18 07:30N 43°20' W 003°03'0 0.0
2017-Oct-18 07:00N 43°20' W 003°03'0 0.0
2017-Oct-18 06:30N 43°20' W 003°03'0 0.0
2017-Oct-17 15:25N 43°20' W 003°03'0 0.0
2017-Oct-17 14:58N 43°20' W 003°03'0 0.0
2017-Oct-17 14:28N 43°20' W 003°03'0 0.0
2017-Oct-17 13:58N 43°20' W 003°03'0 0.0
2017-Oct-17 13:28N 43°20' W 003°03'0 0.0
2017-Oct-17 12:58N 43°20' W 003°03'0 0.0
2017-Oct-17 12:28N 43°20' W 003°03'0 0.0
2017-Oct-17 11:58N 43°20' W 003°03'0 0.0
2017-Oct-17 11:28N 43°20' W 003°03'0 0.0
2017-Oct-17 10:55N 43°20' W 003°03'1 3.0
2017-Oct-17 10:29N 43°21' W 003°04'1 2.0
2017-Oct-17 09:59N 43°21' W 003°03'1 2.0
2017-Oct-17 09:29N 43°21' W 003°04'0 0.0
2017-Oct-17 08:59N 43°21' W 003°04'1 3.0
2017-Oct-17 08:31N 43°20' W 003°02'0 0.1
2017-Oct-17 07:58N 43°20' W 003°03'0 0.0
2017-Oct-17 07:28N 43°20' W 003°03'0 0.0
2017-Oct-17 06:58N 43°20' W 003°03'0 0.0
2017-Oct-16 15:47N 43°20' W 003°03'0 0.0
2017-Oct-16 15:29N 43°20' W 003°03'0 0.0
2017-Oct-16 14:59N 43°20' W 003°03'0 0.0
2017-Oct-16 13:59N 43°20' W 003°03'0 0.0
2017-Oct-16 13:29N 43°20' W 003°03'0 0.0
2017-Oct-16 12:59N 43°20' W 003°03'0 0.0
2017-Oct-16 12:29N 43°20' W 003°03'0 0.0
2017-Oct-16 11:59N 43°20' W 003°03'0 0.0
2017-Oct-16 11:29N 43°20' W 003°03'0 0.9
2017-Oct-16 11:00N 43°20' W 003°02'3 6.0
2017-Oct-16 10:30N 43°23' W 003°02'2 4.5
2017-Oct-16 10:01N 43°24' W 002°60'5 8.8
2017-Oct-16 09:29N 43°20' W 003°03'0 0.0
2017-Oct-16 08:59N 43°20' W 003°03'0 0.0
2017-Oct-16 08:29N 43°20' W 003°03'0 0.0
2017-Oct-16 07:59N 43°20' W 003°03'0 0.0
2017-Oct-16 07:29N 43°20' W 003°03'0 0.0
2017-Oct-16 06:59N 43°20' W 003°03'0 0.0
2017-Oct-15 17:06N 43°20' W 003°03'0 0.0
2017-Oct-15 17:00N 43°20' W 003°03'0 0.0
2017-Oct-15 16:30N 43°20' W 003°03'0 0.0
2017-Oct-15 16:00N 43°20' W 003°03'0 0.0
2017-Oct-15 15:30N 43°20' W 003°03'0 0.0
2017-Oct-15 15:00N 43°20' W 003°03'0 0.0
2017-Oct-15 14:00N 43°20' W 003°03'0 0.0
2017-Oct-15 13:30N 43°20' W 003°03'0 0.0
2017-Oct-15 13:00N 43°20' W 003°03'0 0.0
2017-Oct-15 12:30N 43°20' W 003°03'0 0.0
2017-Oct-15 12:00N 43°20' W 003°03'0 0.0
2017-Oct-15 11:30N 43°20' W 003°03'0 0.0
2017-Oct-15 11:00N 43°20' W 003°03'0 0.0
2017-Oct-15 10:30N 43°20' W 003°03'0 0.0
2017-Oct-15 07:31N 43°20' W 003°03'0 0.0
2017-Oct-15 07:28N 43°20' W 003°03'1 2.6
2017-Oct-15 07:00N 43°20' W 003°01'1 1.3
2017-Oct-15 06:30N 43°20' W 003°02'1 1.4
2017-Oct-15 06:01N 43°21' W 003°02'1 0.1
2017-Oct-14 16:34N 43°20' W 003°03'0 0.0
2017-Oct-14 16:25N 43°20' W 003°03'0 0.0
2017-Oct-14 16:01N 43°20' W 003°03'0 0.0
2017-Oct-14 15:28N 43°20' W 003°03'0 0.0
2017-Oct-14 14:58N 43°20' W 003°03'0 0.0
2017-Oct-14 14:28N 43°20' W 003°03'0 0.0
2017-Oct-14 13:58N 43°20' W 003°03'0 0.0
2017-Oct-14 13:28N 43°20' W 003°03'0 0.0
2017-Oct-14 12:58N 43°20' W 003°03'0 0.0
2017-Oct-14 12:28N 43°20' W 003°03'0 0.0
2017-Oct-13 16:04N 43°20' W 003°03'0 0.0
2017-Oct-13 15:58N 43°20' W 003°03'0 0.0
2017-Oct-13 15:28N 43°20' W 003°03'0 0.0
2017-Oct-13 14:58N 43°20' W 003°03'0 0.0
2017-Oct-13 14:28N 43°20' W 003°03'0 0.0
2017-Oct-13 13:58N 43°20' W 003°03'0 0.0
2017-Oct-13 13:28N 43°20' W 003°03'0 0.0
2017-Oct-13 12:58N 43°20' W 003°03'0 0.0
2017-Oct-13 12:28N 43°20' W 003°03'0 0.0
2017-Oct-13 11:58N 43°20' W 003°03'0 0.0
2017-Oct-13 11:28N 43°20' W 003°03'0 0.0
2017-Oct-13 10:58N 43°20' W 003°03'0 0.0
2017-Oct-13 10:28N 43°20' W 003°03'0 0.0
2017-Oct-13 09:58N 43°20' W 003°03'0 0.0
2017-Oct-13 09:25N 43°20' W 003°03'0 0.0
2017-Oct-13 08:58N 43°20' W 003°03'0 0.0
2017-Oct-13 08:28N 43°20' W 003°03'0 0.0
2017-Oct-13 07:58N 43°20' W 003°03'0 0.0
2017-Oct-13 07:28N 43°20' W 003°03'0 0.0
2017-Oct-13 06:58N 43°20' W 003°03'0 0.0
2017-Oct-12 17:12N 43°20' W 003°03'0 0.0
2017-Oct-12 17:00N 43°20' W 003°03'0 0.0
2017-Oct-12 16:30N 43°20' W 003°03'0 0.0
2017-Oct-12 16:00N 43°20' W 003°03'0 0.0
2017-Oct-12 15:30N 43°20' W 003°03'0 0.0
2017-Oct-12 15:00N 43°20' W 003°03'0 0.0
2017-Oct-12 14:30N 43°20' W 003°03'0 0.0
2017-Oct-12 14:00N 43°20' W 003°03'0 0.0
2017-Oct-12 13:30N 43°20' W 003°03'0 0.0
2017-Oct-12 13:00N 43°20' W 003°03'0 0.2
2017-Oct-12 12:31N 43°20' W 003°02'0 0.0
2017-Oct-12 08:19N 43°20' W 003°03'0 0.5
2017-Oct-12 08:01N 43°20' W 003°02'714.8
2017-Oct-12 07:30N 43°23' W 003°12'3 6.5
2017-Oct-12 07:00N 43°24' W 003°16'11 0.3
2017-Oct-10 16:09N 43°20' W 003°03'0 0.0
2017-Oct-10 16:00N 43°20' W 003°03'0 0.0
2017-Oct-10 15:30N 43°20' W 003°03'0 0.0
2017-Oct-10 15:00N 43°20' W 003°03'0 0.0
2017-Oct-10 14:00N 43°20' W 003°03'0 0.0
2017-Oct-10 13:30N 43°20' W 003°03'0 0.0
2017-Oct-10 13:00N 43°20' W 003°03'0 0.0
2017-Oct-10 12:30N 43°20' W 003°03'0 0.0
2017-Oct-10 12:00N 43°20' W 003°03'0 0.0
2017-Oct-10 11:30N 43°20' W 003°03'0 0.0
2017-Oct-10 11:00N 43°20' W 003°03'0 0.0
2017-Oct-10 10:30N 43°20' W 003°03'0 0.0
2017-Oct-10 10:00N 43°20' W 003°03'0 0.0
2017-Oct-10 09:30N 43°20' W 003°03'0 0.0
2017-Oct-10 09:00N 43°20' W 003°03'0 0.0
2017-Oct-10 08:30N 43°20' W 003°03'  
Track history (hours):
 
Tides and Currents Weather Stations Pressure Air Temp Water Temp Dewpoint Dewpoint Depression Visibility Wind Speed Wind Dir Waves Ship Positions

Salvamar Alcyone

Last reported at 2017-Oct-20 08:29 UTC. Time now 2017-Oct-20 08:54 UTC.
Position N 43°20' W 003°03'.

Length 21 m; draft 1 m.

Type: SAR. MMSI: 224379540.

Date/timePositionNaut miles runAvg speedWind from/ knotsBaromVisibWave heightAir tempDewpointWater temp
2017-Oct-20 08:29N 43°20' W 003°03'0 0.0
2017-Oct-20 07:59N 43°20' W 003°03'0 0.0
2017-Oct-20 07:29N 43°20' W 003°03'0 0.0
2017-Oct-20 06:59N 43°20' W 003°03'0 0.0
2017-Oct-19 13:29N 43°20' W 003°03'3 5.9
2017-Oct-19 13:01N 43°23' W 003°03'1020.5
2017-Oct-19 12:31N 43°33' W 003°08'1224.4
2017-Oct-19 12:01N 43°40' W 003°22'1122.4
2017-Oct-19 11:30N 43°48' W 003°34'1122.1
2017-Oct-19 10:59N 43°56' W 003°44'7 6.4
2017-Oct-19 09:51N 43°51' W 003°36'721.2
2017-Oct-19 09:30N 43°46' W 003°30'1121.5
2017-Oct-19 09:00N 43°38' W 003°20'1121.3
2017-Oct-19 08:30N 43°29' W 003°11'1121.5
2017-Oct-19 08:00N 43°21' W 003°02'1 1.4
2017-Oct-19 07:29N 43°20' W 003°03'0 0.0
2017-Oct-18 12:27N 43°20' W 003°03'3 7.3
2017-Oct-18 12:00N 43°23' W 003°05'1121.3
2017-Oct-18 11:30N 43°26' W 003°19'4 4.5
2017-Oct-18 10:34N 43°25' W 003°25'1 9.5
2017-Oct-18 10:30N 43°25' W 003°24'1224.4
2017-Oct-18 10:00N 43°23' W 003°08'5 9.8
2017-Oct-18 09:30N 43°20' W 003°03'0 0.0
2017-Oct-18 09:00N 43°20' W 003°03'0 0.0
2017-Oct-18 08:30N 43°20' W 003°03'0 0.0
2017-Oct-18 08:00N 43°20' W 003°03'0 0.0
2017-Oct-18 07:30N 43°20' W 003°03'0 0.0
2017-Oct-18 07:00N 43°20' W 003°03'0 0.0
2017-Oct-18 06:30N 43°20' W 003°03'0 0.0
2017-Oct-17 15:25N 43°20' W 003°03'0 0.0
2017-Oct-17 14:58N 43°20' W 003°03'0 0.0
2017-Oct-17 14:28N 43°20' W 003°03'0 0.0
2017-Oct-17 13:58N 43°20' W 003°03'0 0.0
2017-Oct-17 13:28N 43°20' W 003°03'0 0.0
2017-Oct-17 12:58N 43°20' W 003°03'0 0.0
2017-Oct-17 12:28N 43°20' W 003°03'0 0.0
2017-Oct-17 11:58N 43°20' W 003°03'0 0.0
2017-Oct-17 11:28N 43°20' W 003°03'0 0.0
2017-Oct-17 10:55N 43°20' W 003°03'1 3.0
2017-Oct-17 10:29N 43°21' W 003°04'1 2.0
2017-Oct-17 09:59N 43°21' W 003°03'1 2.0
2017-Oct-17 09:29N 43°21' W 003°04'0 0.0
2017-Oct-17 08:59N 43°21' W 003°04'1 3.0
2017-Oct-17 08:31N 43°20' W 003°02'0 0.1
2017-Oct-17 07:58N 43°20' W 003°03'0 0.0
2017-Oct-17 07:28N 43°20' W 003°03'0 0.0
2017-Oct-17 06:58N 43°20' W 003°03'0 0.0
2017-Oct-16 15:47N 43°20' W 003°03'0 0.0
2017-Oct-16 15:29N 43°20' W 003°03'0 0.0
2017-Oct-16 14:59N 43°20' W 003°03'0 0.0
2017-Oct-16 13:59N 43°20' W 003°03'0 0.0
2017-Oct-16 13:29N 43°20' W 003°03'0 0.0
2017-Oct-16 12:59N 43°20' W 003°03'0 0.0
2017-Oct-16 12:29N 43°20' W 003°03'0 0.0
2017-Oct-16 11:59N 43°20' W 003°03'0 0.0
2017-Oct-16 11:29N 43°20' W 003°03'0 0.9
2017-Oct-16 11:00N 43°20' W 003°02'3 6.0
2017-Oct-16 10:30N 43°23' W 003°02'2 4.5
2017-Oct-16 10:01N 43°24' W 002°60'5 8.8
2017-Oct-16 09:29N 43°20' W 003°03'0 0.0
2017-Oct-16 08:59N 43°20' W 003°03'0 0.0
2017-Oct-16 08:29N 43°20' W 003°03'0 0.0
2017-Oct-16 07:59N 43°20' W 003°03'0 0.0
2017-Oct-16 07:29N 43°20' W 003°03'0 0.0
2017-Oct-16 06:59N 43°20' W 003°03'0 0.0
2017-Oct-15 17:06N 43°20' W 003°03'0 0.0
2017-Oct-15 17:00N 43°20' W 003°03'0 0.0
2017-Oct-15 16:30N 43°20' W 003°03'0 0.0
2017-Oct-15 16:00N 43°20' W 003°03'0 0.0
2017-Oct-15 15:30N 43°20' W 003°03'0 0.0
2017-Oct-15 15:00N 43°20' W 003°03'0 0.0
2017-Oct-15 14:00N 43°20' W 003°03'0 0.0
2017-Oct-15 13:30N 43°20' W 003°03'0 0.0
2017-Oct-15 13:00N 43°20' W 003°03'0 0.0
2017-Oct-15 12:30N 43°20' W 003°03'0 0.0
2017-Oct-15 12:00N 43°20' W 003°03'0 0.0
2017-Oct-15 11:30N 43°20' W 003°03'0 0.0
2017-Oct-15 11:00N 43°20' W 003°03'0 0.0
2017-Oct-15 10:30N 43°20' W 003°03'0 0.0
2017-Oct-15 07:31N 43°20' W 003°03'0 0.0
2017-Oct-15 07:28N 43°20' W 003°03'1 2.6
2017-Oct-15 07:00N 43°20' W 003°01'1 1.3
2017-Oct-15 06:30N 43°20' W 003°02'1 1.4
2017-Oct-15 06:01N 43°21' W 003°02'1 0.1
2017-Oct-14 16:34N 43°20' W 003°03'0 0.0
2017-Oct-14 16:25N 43°20' W 003°03'0 0.0
2017-Oct-14 16:01N 43°20' W 003°03'0 0.0
2017-Oct-14 15:28N 43°20' W 003°03'0 0.0
2017-Oct-14 14:58N 43°20' W 003°03'0 0.0
2017-Oct-14 14:28N 43°20' W 003°03'0 0.0
2017-Oct-14 13:58N 43°20' W 003°03'0 0.0
2017-Oct-14 13:28N 43°20' W 003°03'0 0.0
2017-Oct-14 12:58N 43°20' W 003°03'0 0.0
2017-Oct-14 12:28N 43°20' W 003°03'0 0.0
2017-Oct-13 16:04N 43°20' W 003°03'0 0.0
2017-Oct-13 15:58N 43°20' W 003°03'0 0.0
2017-Oct-13 15:28N 43°20' W 003°03'0 0.0
2017-Oct-13 14:58N 43°20' W 003°03'0 0.0
2017-Oct-13 14:28N 43°20' W 003°03'0 0.0
2017-Oct-13 13:58N 43°20' W 003°03'0 0.0
2017-Oct-13 13:28N 43°20' W 003°03'0 0.0
2017-Oct-13 12:58N 43°20' W 003°03'0 0.0
2017-Oct-13 12:28N 43°20' W 003°03'0 0.0
2017-Oct-13 11:58N 43°20' W 003°03'0 0.0
2017-Oct-13 11:28N 43°20' W 003°03'0 0.0
2017-Oct-13 10:58N 43°20' W 003°03'0 0.0
2017-Oct-13 10:28N 43°20' W 003°03'0 0.0
2017-Oct-13 09:58N 43°20' W 003°03'0 0.0
2017-Oct-13 09:25N 43°20' W 003°03'0 0.0
2017-Oct-13 08:58N 43°20' W 003°03'0 0.0
2017-Oct-13 08:28N 43°20' W 003°03'0 0.0
2017-Oct-13 07:58N 43°20' W 003°03'0 0.0
2017-Oct-13 07:28N 43°20' W 003°03'0 0.0
2017-Oct-13 06:58N 43°20' W 003°03'0 0.0
2017-Oct-12 17:12N 43°20' W 003°03'0 0.0
2017-Oct-12 17:00N 43°20' W 003°03'0 0.0
2017-Oct-12 16:30N 43°20' W 003°03'0 0.0
2017-Oct-12 16:00N 43°20' W 003°03'0 0.0
2017-Oct-12 15:30N 43°20' W 003°03'0 0.0
2017-Oct-12 15:00N 43°20' W 003°03'0 0.0
2017-Oct-12 14:30N 43°20' W 003°03'0 0.0
2017-Oct-12 14:00N 43°20' W 003°03'0 0.0
2017-Oct-12 13:30N 43°20' W 003°03'0 0.0
2017-Oct-12 13:00N 43°20' W 003°03'0 0.2
2017-Oct-12 12:31N 43°20' W 003°02'0 0.0
2017-Oct-12 08:19N 43°20' W 003°03'0 0.5
2017-Oct-12 08:01N 43°20' W 003°02'714.8
2017-Oct-12 07:30N 43°23' W 003°12'3 6.5
2017-Oct-12 07:00N 43°24' W 003°16'11 0.3
2017-Oct-10 16:09N 43°20' W 003°03'0 0.0
2017-Oct-10 16:00N 43°20' W 003°03'0 0.0
2017-Oct-10 15:30N 43°20' W 003°03'0 0.0
2017-Oct-10 15:00N 43°20' W 003°03'0 0.0
2017-Oct-10 14:00N 43°20' W 003°03'0 0.0
2017-Oct-10 13:30N 43°20' W 003°03'0 0.0
2017-Oct-10 13:00N 43°20' W 003°03'0 0.0
2017-Oct-10 12:30N 43°20' W 003°03'0 0.0
2017-Oct-10 12:00N 43°20' W 003°03'0 0.0
2017-Oct-10 11:30N 43°20' W 003°03'0 0.0
2017-Oct-10 11:00N 43°20' W 003°03'0 0.0
2017-Oct-10 10:30N 43°20' W 003°03'0 0.0
2017-Oct-10 10:00N 43°20' W 003°03'0 0.0
2017-Oct-10 09:30N 43°20' W 003°03'0 0.0
2017-Oct-10 09:00N 43°20' W 003°03'0 0.0
2017-Oct-10 08:30N 43°20' W 003°03'  

Dump ship's entire track history